createdAt,value
2023-03-22T00:00:14.994Z,1004.30
2023-03-22T00:01:14.994Z,1004.31
2023-03-22T00:02:15.009Z,1004.32
2023-03-22T00:03:14.997Z,1004.36
2023-03-22T00:04:14.950Z,1004.34
2023-03-22T00:05:14.932Z,1004.32
2023-03-22T00:06:14.937Z,1004.32
2023-03-22T00:07:14.988Z,1004.32
2023-03-22T00:08:14.902Z,1004.29
2023-03-22T00:09:14.895Z,1004.29
2023-03-22T00:10:14.880Z,1004.27
2023-03-22T00:11:14.871Z,1004.26
2023-03-22T00:12:14.876Z,1004.22
2023-03-22T00:13:14.899Z,1004.21
2023-03-22T00:14:14.898Z,1004.24
2023-03-22T00:15:14.839Z,1004.26
2023-03-22T00:16:14.889Z,1004.26
2023-03-22T00:17:14.854Z,1004.26
2023-03-22T00:18:14.805Z,1004.26
2023-03-22T00:19:14.791Z,1004.23
2023-03-22T00:20:14.779Z,1004.29
2023-03-22T00:21:14.803Z,1004.27
2023-03-22T00:22:14.804Z,1004.25
2023-03-22T00:23:14.740Z,1004.22
2023-03-22T00:24:14.828Z,1004.21
2023-03-22T00:25:14.729Z,1004.21
2023-03-22T00:26:14.723Z,1004.24
2023-03-22T00:27:14.709Z,1004.25
2023-03-22T00:28:14.720Z,1004.23
2023-03-22T00:29:14.714Z,1004.21
2023-03-22T00:30:14.679Z,1004.18
2023-03-22T00:31:14.727Z,1004.15
2023-03-22T00:32:14.656Z,1004.18
2023-03-22T00:33:14.710Z,1004.20
2023-03-22T00:34:14.633Z,1004.16
2023-03-22T00:35:14.613Z,1004.17
2023-03-22T00:36:14.660Z,1004.18
2023-03-22T00:37:14.608Z,1004.13
2023-03-22T00:38:14.637Z,1004.20
2023-03-22T00:39:14.627Z,1004.14
2023-03-22T00:40:15.767Z,1004.08
2023-03-22T00:41:14.565Z,1004.12
2023-03-22T00:42:14.543Z,1004.09
2023-03-22T00:43:14.583Z,1004.09
2023-03-22T00:44:14.595Z,1004.13
2023-03-22T00:45:14.518Z,1004.14
2023-03-22T00:46:14.578Z,1004.06
2023-03-22T00:47:14.530Z,1004.05
2023-03-22T00:48:14.526Z,1004.01
2023-03-22T00:49:14.516Z,1003.97
2023-03-22T00:50:14.512Z,1003.99
2023-03-22T00:51:14.448Z,1003.98
2023-03-22T00:52:14.431Z,1003.98
2023-03-22T00:53:14.433Z,1004.02
2023-03-22T00:54:14.468Z,1003.99
2023-03-22T00:55:14.406Z,1004.00
2023-03-22T00:56:14.565Z,1003.95
2023-03-22T00:57:14.390Z,1003.88
2023-03-22T00:58:14.373Z,1003.86
2023-03-22T00:59:14.422Z,1003.86
2023-03-22T01:00:14.395Z,1003.83
2023-03-22T01:01:14.761Z,1003.85
2023-03-22T01:02:14.324Z,1003.82
2023-03-22T01:03:14.359Z,1003.82
2023-03-22T01:04:14.364Z,1003.80
2023-03-22T01:05:14.300Z,1003.80
2023-03-22T01:06:14.288Z,1003.73
2023-03-22T01:07:14.281Z,1003.75
2023-03-22T01:08:14.313Z,1003.73
2023-03-22T01:09:14.290Z,1003.73
2023-03-22T01:10:14.262Z,1003.69
2023-03-22T01:11:14.239Z,1003.71
2023-03-22T01:12:14.219Z,1003.69
2023-03-22T01:13:15.181Z,1003.70
2023-03-22T01:14:14.252Z,1003.70
2023-03-22T01:15:14.189Z,1003.71
2023-03-22T01:16:14.182Z,1003.65
2023-03-22T01:17:14.166Z,1003.63
2023-03-22T01:18:14.149Z,1003.62
2023-03-22T01:19:14.199Z,1003.57
2023-03-22T01:20:14.148Z,1003.59
2023-03-22T01:21:14.135Z,1003.59
2023-03-22T01:22:14.148Z,1003.62
2023-03-22T01:23:14.096Z,1003.59
2023-03-22T01:24:14.127Z,1003.60
2023-03-22T01:25:14.141Z,1003.57
2023-03-22T01:26:14.062Z,1003.55
2023-03-22T01:27:14.075Z,1003.54
2023-03-22T01:28:14.063Z,1003.57
2023-03-22T01:29:14.071Z,1003.57
2023-03-22T01:30:14.035Z,1003.50
2023-03-22T01:31:14.107Z,1003.51
2023-03-22T01:32:13.996Z,1003.50
2023-03-22T01:33:13.987Z,1003.57
2023-03-22T01:34:13.976Z,1003.55
2023-03-22T01:35:14.006Z,1003.56
2023-03-22T01:36:13.965Z,1003.53
2023-03-22T01:37:13.956Z,1003.54
2023-03-22T01:38:13.938Z,1003.48
2023-03-22T01:39:13.936Z,1003.46
2023-03-22T01:40:13.920Z,1003.47
2023-03-22T01:41:14.048Z,1003.43
2023-03-22T01:42:13.906Z,1003.41
2023-03-22T01:43:13.901Z,1003.40
2023-03-22T01:44:13.899Z,1003.37
2023-03-22T01:45:13.884Z,1003.32
2023-03-22T01:46:13.889Z,1003.32
2023-03-22T01:47:13.897Z,1003.31
2023-03-22T01:48:13.900Z,1003.30
2023-03-22T01:49:13.893Z,1003.26
2023-03-22T01:50:13.831Z,1003.26
2023-03-22T01:51:13.819Z,1003.22
2023-03-22T01:52:13.821Z,1003.26
2023-03-22T01:53:13.778Z,1003.26
2023-03-22T01:54:13.772Z,1003.20
2023-03-22T01:55:13.774Z,1003.17
2023-03-22T01:56:13.741Z,1003.17
2023-03-22T01:57:13.811Z,1003.15
2023-03-22T01:58:13.771Z,1003.15
2023-03-22T01:59:13.770Z,1003.14
2023-03-22T02:00:13.745Z,1003.10
2023-03-22T02:01:13.717Z,1003.02
2023-03-22T02:02:13.727Z,1003.13
2023-03-22T02:03:13.682Z,1003.07
2023-03-22T02:04:13.660Z,1003.05
2023-03-22T02:05:13.648Z,1003.01
2023-03-22T02:06:13.692Z,1003.04
2023-03-22T02:07:13.626Z,1003.09
2023-03-22T02:08:13.620Z,1003.01
2023-03-22T02:09:13.655Z,1002.99
2023-03-22T02:10:13.611Z,1002.97
2023-03-22T02:11:13.607Z,1002.96
2023-03-22T02:12:13.615Z,1002.94
2023-03-22T02:13:13.582Z,1002.94
2023-03-22T02:14:13.562Z,1002.90
2023-03-22T02:15:13.643Z,1002.89
2023-03-22T02:16:13.607Z,1002.89
2023-03-22T02:17:13.589Z,1002.89
2023-03-22T02:18:13.526Z,1002.84
2023-03-22T02:19:13.498Z,1002.84
2023-03-22T02:20:13.539Z,1002.84
2023-03-22T02:21:13.481Z,1002.81
2023-03-22T02:22:13.478Z,1002.79
2023-03-22T02:23:13.460Z,1002.77
2023-03-22T02:24:13.449Z,1002.74
2023-03-22T02:25:14.018Z,1002.78
2023-03-22T02:26:13.435Z,1002.79
2023-03-22T02:27:13.427Z,1002.79
2023-03-22T02:28:13.420Z,1002.76
2023-03-22T02:29:13.396Z,1002.71
2023-03-22T02:30:13.500Z,1002.79
2023-03-22T02:31:13.415Z,1002.77
2023-03-22T02:32:13.394Z,1002.73
2023-03-22T02:33:13.382Z,1002.76
2023-03-22T02:34:13.339Z,1002.71
2023-03-22T02:35:13.329Z,1002.74
2023-03-22T02:36:13.320Z,1002.77
2023-03-22T02:37:13.338Z,1002.69
2023-03-22T02:38:13.377Z,1002.67
2023-03-22T02:39:13.285Z,1002.65
2023-03-22T02:40:13.359Z,1002.62
2023-03-22T02:41:13.263Z,1002.56
2023-03-22T02:42:13.260Z,1002.57
2023-03-22T02:43:13.269Z,1002.60
2023-03-22T02:44:13.251Z,1002.60
2023-03-22T02:45:13.262Z,1002.56
2023-03-22T02:46:13.238Z,1002.54
2023-03-22T02:47:13.209Z,1002.56
2023-03-22T02:48:13.278Z,1002.51
2023-03-22T02:49:13.205Z,1002.49
2023-03-22T02:50:13.177Z,1002.46
2023-03-22T02:51:13.219Z,1002.47
2023-03-22T02:52:13.156Z,1002.46
2023-03-22T02:53:13.145Z,1002.48
2023-03-22T02:54:13.168Z,1002.45
2023-03-22T02:55:13.118Z,1002.44
2023-03-22T02:56:13.115Z,1002.46
2023-03-22T02:57:13.104Z,1002.46
2023-03-22T02:58:13.088Z,1002.50
2023-03-22T02:59:13.110Z,1002.47
2023-03-22T03:00:13.076Z,1002.43
2023-03-22T03:01:13.094Z,1002.47
2023-03-22T03:02:13.080Z,1002.45
2023-03-22T03:03:13.049Z,1002.47
2023-03-22T03:04:13.027Z,1002.48
2023-03-22T03:05:13.011Z,1002.47
2023-03-22T03:06:13.006Z,1002.44
2023-03-22T03:07:13.027Z,1002.44
2023-03-22T03:08:12.989Z,1002.46
2023-03-22T03:09:13.007Z,1002.46
2023-03-22T03:10:13.009Z,1002.42
2023-03-22T03:11:12.946Z,1002.43
2023-03-22T03:12:12.968Z,1002.43
2023-03-22T03:13:12.931Z,1002.39
2023-03-22T03:14:12.984Z,1002.42
2023-03-22T03:15:12.896Z,1002.39
2023-03-22T03:16:12.983Z,1002.38
2023-03-22T03:17:12.900Z,1002.33
2023-03-22T03:18:12.877Z,1002.40
2023-03-22T03:19:12.863Z,1002.33
2023-03-22T03:20:12.915Z,1002.41
2023-03-22T03:21:12.837Z,1002.39
2023-03-22T03:22:12.841Z,1002.38
2023-03-22T03:23:12.831Z,1002.34
2023-03-22T03:24:12.865Z,1002.38
2023-03-22T03:25:12.794Z,1002.39
2023-03-22T03:26:12.823Z,1002.37
2023-03-22T03:27:12.777Z,1002.38
2023-03-22T03:28:12.771Z,1002.41
2023-03-22T03:29:12.888Z,1002.42
2023-03-22T03:30:12.787Z,1002.37
2023-03-22T03:31:12.745Z,1002.33
2023-03-22T03:32:12.728Z,1002.31
2023-03-22T03:33:12.706Z,1002.35
2023-03-22T03:34:12.725Z,1002.34
2023-03-22T03:35:12.757Z,1002.32
2023-03-22T03:36:12.755Z,1002.34
2023-03-22T03:37:12.686Z,1002.34
2023-03-22T03:38:12.665Z,1002.34
2023-03-22T03:39:12.650Z,1002.33
2023-03-22T03:40:12.666Z,1002.32
2023-03-22T03:41:12.659Z,1002.34
2023-03-22T03:42:12.655Z,1002.33
2023-03-22T03:43:12.615Z,1002.34
2023-03-22T03:44:12.596Z,1002.28
2023-03-22T03:45:12.587Z,1002.25
2023-03-22T03:46:12.706Z,1002.32
2023-03-22T03:47:12.573Z,1002.28
2023-03-22T03:48:12.576Z,1002.24
2023-03-22T03:49:12.568Z,1002.25
2023-03-22T03:50:12.556Z,1002.22
2023-03-22T03:51:12.521Z,1002.23
2023-03-22T03:52:12.562Z,1002.28
2023-03-22T03:53:12.518Z,1002.23
2023-03-22T03:54:12.497Z,1002.23
2023-03-22T03:55:12.509Z,1002.24
2023-03-22T03:56:12.479Z,1002.24
2023-03-22T03:57:12.479Z,1002.20
2023-03-22T03:58:12.458Z,1002.18
2023-03-22T03:59:12.458Z,1002.20
2023-03-22T04:00:12.466Z,1002.17
2023-03-22T04:01:12.456Z,1002.17
2023-03-22T04:02:12.450Z,1002.15
2023-03-22T04:03:12.467Z,1002.19
2023-03-22T04:04:12.446Z,1002.18
2023-03-22T04:05:12.427Z,1002.20
2023-03-22T04:06:12.368Z,1002.27
2023-03-22T04:07:12.383Z,1002.19
2023-03-22T04:08:12.383Z,1002.15
2023-03-22T04:09:12.383Z,1002.17
2023-03-22T04:10:12.330Z,1002.18
2023-03-22T04:11:12.373Z,1002.16
2023-03-22T04:12:12.370Z,1002.12
2023-03-22T04:13:12.287Z,1002.18
2023-03-22T04:14:12.286Z,1002.18
2023-03-22T04:15:12.270Z,1002.11
2023-03-22T04:16:12.280Z,1002.12
2023-03-22T04:17:12.241Z,1002.11
2023-03-22T04:18:12.290Z,1002.10
2023-03-22T04:19:12.231Z,1002.07
2023-03-22T04:20:12.226Z,1002.07
2023-03-22T04:21:12.288Z,1002.09
2023-03-22T04:22:12.208Z,1002.13
2023-03-22T04:23:12.179Z,1002.11
2023-03-22T04:24:12.222Z,1002.03
2023-03-22T04:25:12.161Z,1002.04
2023-03-22T04:26:12.158Z,1002.04
2023-03-22T04:27:12.127Z,1002.08
2023-03-22T04:28:12.127Z,1002.04
2023-03-22T04:29:12.118Z,1002.00
2023-03-22T04:30:12.137Z,1002.01
2023-03-22T04:31:12.142Z,1002.00
2023-03-22T04:32:12.123Z,1002.03
2023-03-22T04:33:12.066Z,1002.01
2023-03-22T04:34:12.095Z,1002.01
2023-03-22T04:35:12.123Z,1002.02
2023-03-22T04:36:12.046Z,1002.04
2023-03-22T04:37:12.071Z,1002.04
2023-03-22T04:38:12.020Z,1002.08
2023-03-22T04:39:12.004Z,1002.08
2023-03-22T04:40:11.994Z,1002.05
2023-03-22T04:41:12.024Z,1002.06
2023-03-22T04:42:11.977Z,1002.06
2023-03-22T04:43:13.735Z,1002.07
2023-03-22T04:44:11.984Z,1002.06
2023-03-22T04:45:11.937Z,1002.01
2023-03-22T04:46:12.008Z,1002.02
2023-03-22T04:47:11.925Z,1001.94
2023-03-22T04:48:11.937Z,1001.98
2023-03-22T04:49:11.904Z,1001.99
2023-03-22T04:50:11.883Z,1001.98
2023-03-22T04:51:11.917Z,1001.97
2023-03-22T04:52:11.874Z,1001.98
2023-03-22T04:53:11.888Z,1002.01
2023-03-22T04:54:11.854Z,1001.98
2023-03-22T04:55:11.833Z,1001.97
2023-03-22T04:56:11.833Z,1001.98
2023-03-22T04:57:11.837Z,1001.99
2023-03-22T04:58:11.832Z,1001.95
2023-03-22T04:59:11.787Z,1001.99
2023-03-22T05:00:11.818Z,1001.96
2023-03-22T05:01:11.831Z,1001.99
2023-03-22T05:02:11.755Z,1001.99
2023-03-22T05:03:11.830Z,1002.03
2023-03-22T05:04:11.753Z,1002.01
2023-03-22T05:05:11.739Z,1001.98
2023-03-22T05:06:11.764Z,1001.93
2023-03-22T05:07:11.725Z,1001.93
2023-03-22T05:08:11.713Z,1001.97
2023-03-22T05:09:11.706Z,1001.94
2023-03-22T05:10:11.673Z,1001.97
2023-03-22T05:11:11.684Z,1001.97
2023-03-22T05:12:11.653Z,1001.93
2023-03-22T05:13:11.644Z,1001.98
2023-03-22T05:14:11.673Z,1001.96
2023-03-22T05:15:11.607Z,1001.95
2023-03-22T05:16:11.652Z,1001.95
2023-03-22T05:17:11.599Z,1001.96
2023-03-22T05:18:11.582Z,1001.94
2023-03-22T05:19:14.792Z,1001.94
2023-03-22T05:20:11.570Z,1001.95
2023-03-22T05:21:11.551Z,1001.98
2023-03-22T05:22:11.560Z,1001.91
2023-03-22T05:23:11.606Z,1001.94
2023-03-22T05:24:11.554Z,1001.92
2023-03-22T05:25:11.519Z,1001.96
2023-03-22T05:26:11.532Z,1001.93
2023-03-22T05:27:11.552Z,1001.91
2023-03-22T05:28:11.481Z,1001.89
2023-03-22T05:29:11.512Z,1001.92
2023-03-22T05:30:11.475Z,1001.89
2023-03-22T05:31:11.509Z,1001.90
2023-03-22T05:32:11.433Z,1001.92
2023-03-22T05:33:11.426Z,1001.88
2023-03-22T05:34:11.500Z,1001.93
2023-03-22T05:35:11.405Z,1001.96
2023-03-22T05:36:11.429Z,1001.93
2023-03-22T05:37:11.385Z,1001.96
2023-03-22T05:38:14.653Z,1001.97
2023-03-22T05:39:11.364Z,1002.00
2023-03-22T05:40:11.371Z,1001.92
2023-03-22T05:41:11.344Z,1001.94
2023-03-22T05:42:11.335Z,1001.94
2023-03-22T05:43:11.577Z,1001.92
2023-03-22T05:44:11.316Z,1001.90
2023-03-22T05:45:11.626Z,1001.85
2023-03-22T05:46:11.288Z,1001.93
2023-03-22T05:47:11.279Z,1001.88
2023-03-22T05:48:11.350Z,1001.93
2023-03-22T05:49:12.236Z,1001.96
2023-03-22T05:50:11.246Z,1001.87
2023-03-22T05:51:11.232Z,1001.91
2023-03-22T05:52:11.290Z,1001.90
2023-03-22T05:53:11.247Z,1001.90
2023-03-22T05:54:11.208Z,1001.92
2023-03-22T05:55:11.204Z,1001.88
2023-03-22T05:56:11.220Z,1001.89
2023-03-22T05:57:11.174Z,1001.87
2023-03-22T05:58:11.225Z,1001.83
2023-03-22T05:59:11.206Z,1001.83
2023-03-22T06:00:11.151Z,1001.89
2023-03-22T06:01:11.163Z,1001.93
2023-03-22T06:02:11.199Z,1001.90
2023-03-22T06:03:11.184Z,1001.91
2023-03-22T06:04:11.147Z,1001.93
2023-03-22T06:05:11.100Z,1001.98
2023-03-22T06:06:11.106Z,1001.88
2023-03-22T06:07:11.065Z,1001.91
2023-03-22T06:08:11.059Z,1001.89
2023-03-22T06:09:17.341Z,1001.85
2023-03-22T06:10:12.060Z,1001.87
2023-03-22T06:11:11.026Z,1001.80
2023-03-22T06:12:11.017Z,1001.84
2023-03-22T06:13:11.060Z,1001.79
2023-03-22T06:14:11.046Z,1001.78
2023-03-22T06:15:10.996Z,1001.80
2023-03-22T06:16:11.015Z,1001.78
2023-03-22T06:17:10.973Z,1001.72
2023-03-22T06:18:10.978Z,1001.77
2023-03-22T06:19:10.949Z,1001.82
2023-03-22T06:20:10.929Z,1001.76
2023-03-22T06:21:10.926Z,1001.73
2023-03-22T06:22:10.980Z,1001.76
2023-03-22T06:23:10.900Z,1001.78
2023-03-22T06:24:10.896Z,1001.75
2023-03-22T06:25:10.889Z,1001.74
2023-03-22T06:26:10.858Z,1001.81
2023-03-22T06:27:10.850Z,1001.84
2023-03-22T06:28:10.876Z,1001.84
2023-03-22T06:29:10.848Z,1001.78
2023-03-22T06:30:10.854Z,1001.80
2023-03-22T06:31:10.864Z,1001.79
2023-03-22T06:32:10.818Z,1001.80
2023-03-22T06:33:10.826Z,1001.76
2023-03-22T06:34:10.771Z,1001.74
2023-03-22T06:35:10.825Z,1001.73
2023-03-22T06:36:10.813Z,1001.74
2023-03-22T06:37:10.751Z,1001.73
2023-03-22T06:38:10.808Z,1001.69
2023-03-22T06:39:10.731Z,1001.67
2023-03-22T06:40:10.705Z,1001.70
2023-03-22T06:41:10.698Z,1001.62
2023-03-22T06:42:10.718Z,1001.61
2023-03-22T06:43:10.688Z,1001.64
2023-03-22T06:44:10.667Z,1001.68
2023-03-22T06:45:10.661Z,1001.63
2023-03-22T06:46:10.755Z,1001.63
2023-03-22T06:47:10.637Z,1001.65
2023-03-22T06:48:10.670Z,1001.66
2023-03-22T06:49:10.629Z,1001.56
2023-03-22T06:50:10.595Z,1001.66
2023-03-22T06:51:10.634Z,1001.62
2023-03-22T06:52:10.624Z,1001.56
2023-03-22T06:53:10.574Z,1001.61
2023-03-22T06:54:10.562Z,1001.69
2023-03-22T06:55:10.557Z,1001.73
2023-03-22T06:56:10.567Z,1001.71
2023-03-22T06:57:10.549Z,1001.75
2023-03-22T06:58:10.522Z,1001.73
2023-03-22T06:59:10.556Z,1001.70
2023-03-22T07:00:17.517Z,1001.67
2023-03-22T07:01:10.513Z,1001.71
2023-03-22T07:02:10.467Z,1001.69
2023-03-22T07:03:10.506Z,1001.64
2023-03-22T07:04:10.485Z,1001.69
2023-03-22T07:05:12.444Z,1001.64
2023-03-22T07:06:10.422Z,1001.58
2023-03-22T07:07:10.410Z,1001.57
2023-03-22T07:08:10.392Z,1001.57
2023-03-22T07:09:10.399Z,1001.53
2023-03-22T07:10:10.381Z,1001.42
2023-03-22T07:11:10.390Z,1001.47
2023-03-22T07:12:10.347Z,1001.40
2023-03-22T07:13:10.358Z,1001.50
2023-03-22T07:14:10.416Z,1001.49
2023-03-22T07:15:10.345Z,1001.48
2023-03-22T07:16:10.375Z,1001.47
2023-03-22T07:17:10.503Z,1001.46
2023-03-22T07:18:10.333Z,1001.50
2023-03-22T07:19:10.290Z,1001.54
2023-03-22T07:20:10.284Z,1001.52
2023-03-22T07:21:10.264Z,1001.45
2023-03-22T07:22:10.240Z,1001.44
2023-03-22T07:23:10.449Z,1001.41
2023-03-22T07:24:10.229Z,1001.49
2023-03-22T07:25:10.220Z,1001.49
2023-03-22T07:26:10.213Z,1001.50
2023-03-22T07:27:10.212Z,1001.60
2023-03-22T07:28:10.179Z,1001.49
2023-03-22T07:29:10.500Z,1001.50
2023-03-22T07:30:10.169Z,1001.47
2023-03-22T07:31:10.167Z,1001.51
2023-03-22T07:32:10.218Z,1001.43
2023-03-22T07:33:10.318Z,1001.45
2023-03-22T07:34:10.136Z,1001.51
2023-03-22T07:35:10.666Z,1001.47
2023-03-22T07:36:10.089Z,1001.57
2023-03-22T07:37:10.118Z,1001.52
2023-03-22T07:38:10.080Z,1001.52
2023-03-22T07:39:10.073Z,1001.51
2023-03-22T07:40:10.064Z,1001.41
2023-03-22T07:41:10.100Z,1001.40
2023-03-22T07:42:10.033Z,1001.42
2023-03-22T07:43:10.064Z,1001.25
2023-03-22T07:44:17.600Z,1001.43
2023-03-22T07:45:11.068Z,1001.33
2023-03-22T07:46:10.056Z,1001.45
2023-03-22T07:47:09.997Z,1001.41
2023-03-22T07:48:10.210Z,1001.36
2023-03-22T07:49:10.007Z,1001.35
2023-03-22T07:50:09.965Z,1001.38
2023-03-22T07:51:09.947Z,1001.38
2023-03-22T07:52:09.936Z,1001.34
2023-03-22T07:53:09.927Z,1001.38
2023-03-22T07:54:09.926Z,1001.38
2023-03-22T07:55:09.946Z,1001.43
2023-03-22T07:56:10.007Z,1001.29
2023-03-22T07:57:09.887Z,1001.26
2023-03-22T07:58:09.876Z,1001.41
2023-03-22T07:59:09.901Z,1001.35
2023-03-22T08:00:09.850Z,1001.40
2023-03-22T08:01:09.851Z,1001.34
2023-03-22T08:02:09.876Z,1001.35
2023-03-22T08:03:09.853Z,1001.32
2023-03-22T08:04:09.818Z,1001.43
2023-03-22T08:05:09.841Z,1001.44
2023-03-22T08:06:09.805Z,1001.37
2023-03-22T08:07:09.788Z,1001.40
2023-03-22T08:08:12.218Z,1001.40
2023-03-22T08:09:09.767Z,1001.49
2023-03-22T08:10:09.764Z,1001.41
2023-03-22T08:11:09.799Z,1001.38
2023-03-22T08:12:09.725Z,1001.38
2023-03-22T08:13:09.715Z,1001.36
2023-03-22T08:14:09.744Z,1001.38
2023-03-22T08:15:09.737Z,1001.40
2023-03-22T08:16:09.726Z,1001.35
2023-03-22T08:17:09.676Z,1001.44
2023-03-22T08:18:09.694Z,1001.42
2023-03-22T08:19:09.668Z,1001.46
2023-03-22T08:20:09.634Z,1001.46
2023-03-22T08:21:09.674Z,1001.39
2023-03-22T08:22:09.622Z,1001.37
2023-03-22T08:23:09.605Z,1001.50
2023-03-22T08:24:09.632Z,1001.48
2023-03-22T08:25:09.593Z,1001.47
2023-03-22T08:26:09.786Z,1001.41
2023-03-22T08:27:09.565Z,1001.51
2023-03-22T08:28:09.544Z,1001.45
2023-03-22T08:29:09.723Z,1001.40
2023-03-22T08:30:09.535Z,1001.45
2023-03-22T08:31:09.517Z,1001.47
2023-03-22T08:32:09.557Z,1001.48
2023-03-22T08:33:09.493Z,1001.46
2023-03-22T08:34:09.483Z,1001.48
2023-03-22T08:35:09.536Z,1001.48
2023-03-22T08:36:09.475Z,1001.46
2023-03-22T08:37:09.465Z,1001.43
2023-03-22T08:38:09.445Z,1001.56
2023-03-22T08:39:09.486Z,1001.56
2023-03-22T08:40:09.529Z,1001.56
2023-03-22T08:41:09.446Z,1001.55
2023-03-22T08:42:09.392Z,1001.51
2023-03-22T08:43:09.392Z,1001.48
2023-03-22T08:44:09.388Z,1001.52
2023-03-22T08:45:09.501Z,1001.54
2023-03-22T08:46:09.439Z,1001.58
2023-03-22T08:47:09.343Z,1001.50
2023-03-22T08:48:09.369Z,1001.57
2023-03-22T08:49:09.333Z,1001.58
2023-03-22T08:50:09.412Z,1001.60
2023-03-22T08:51:09.322Z,1001.53
2023-03-22T08:52:09.292Z,1001.51
2023-03-22T08:53:09.289Z,1001.49
2023-03-22T08:54:09.281Z,1001.49
2023-03-22T08:55:09.272Z,1001.50
2023-03-22T08:56:09.281Z,1001.56
2023-03-22T08:57:09.282Z,1001.55
2023-03-22T08:58:09.223Z,1001.55
2023-03-22T08:59:09.222Z,1001.56
2023-03-22T09:00:09.231Z,1001.52
2023-03-22T09:01:09.326Z,1001.52
2023-03-22T09:02:09.399Z,1001.51
2023-03-22T09:03:09.182Z,1001.59
2023-03-22T09:04:10.755Z,1001.41
2023-03-22T09:05:09.170Z,1001.51
2023-03-22T09:06:09.216Z,1001.51
2023-03-22T09:07:09.134Z,1001.39
2023-03-22T09:08:18.128Z,1001.50
2023-03-22T09:09:10.117Z,1001.50
2023-03-22T09:10:09.103Z,1001.48
2023-03-22T09:11:09.132Z,1001.49
2023-03-22T09:12:09.070Z,1001.50
2023-03-22T09:13:09.086Z,1001.51
2023-03-22T09:14:09.141Z,1001.48
2023-03-22T09:15:09.106Z,1001.47
2023-03-22T09:16:09.168Z,1001.60
2023-03-22T09:17:09.071Z,1001.56
2023-03-22T09:18:09.005Z,1001.49
2023-03-22T09:19:09.018Z,1001.53
2023-03-22T09:20:12.845Z,1001.51
2023-03-22T09:21:09.033Z,1001.51
2023-03-22T09:22:09.081Z,1001.45
2023-03-22T09:23:08.972Z,1001.47
2023-03-22T09:24:08.964Z,1001.44
2023-03-22T09:25:10.396Z,1001.32
2023-03-22T09:26:08.981Z,1001.41
2023-03-22T09:27:08.948Z,1001.49
2023-03-22T09:28:08.942Z,1001.50
2023-03-22T09:29:08.896Z,1001.50
2023-03-22T09:30:08.876Z,1001.39
2023-03-22T09:31:09.030Z,1001.47
2023-03-22T09:32:08.926Z,1001.47
2023-03-22T09:33:08.848Z,1001.49
2023-03-22T09:34:08.835Z,1001.51
2023-03-22T09:35:08.833Z,1001.47
2023-03-22T09:36:08.827Z,1001.35
2023-03-22T09:37:08.806Z,1001.39
2023-03-22T09:38:11.148Z,1001.42
2023-03-22T09:39:08.787Z,1001.45
2023-03-22T09:40:08.775Z,1001.38
2023-03-22T09:41:08.803Z,1001.38
2023-03-22T09:42:08.748Z,1001.37
2023-03-22T09:43:08.759Z,1001.44
2023-03-22T09:44:08.727Z,1001.34
2023-03-22T09:45:08.726Z,1001.34
2023-03-22T09:46:08.791Z,1001.28
2023-03-22T09:47:08.737Z,1001.29
2023-03-22T09:48:08.699Z,1001.37
2023-03-22T09:49:08.728Z,1001.37
2023-03-22T09:50:08.722Z,1001.29
2023-03-22T09:51:08.688Z,1001.37
2023-03-22T09:52:08.705Z,1001.37
2023-03-22T09:53:08.649Z,1001.26
2023-03-22T09:54:08.618Z,1001.42
2023-03-22T09:55:08.620Z,1001.33
2023-03-22T09:56:08.720Z,1001.45
2023-03-22T09:57:08.616Z,1001.41
2023-03-22T09:58:08.576Z,1001.39
2023-03-22T09:59:08.580Z,1001.39
2023-03-22T10:00:09.941Z,1001.40
2023-03-22T10:01:08.639Z,1001.31
2023-03-22T10:02:08.614Z,1001.34
2023-03-22T10:03:08.557Z,1001.44
2023-03-22T10:04:08.676Z,1001.33
2023-03-22T10:05:08.557Z,1001.43
2023-03-22T10:06:08.496Z,1001.17
2023-03-22T10:07:08.487Z,1001.19
2023-03-22T10:08:08.475Z,1001.33
2023-03-22T10:09:08.489Z,1001.30
2023-03-22T10:10:08.447Z,1001.29
2023-03-22T10:11:08.516Z,1001.34
2023-03-22T10:12:08.437Z,1001.35
2023-03-22T10:13:08.424Z,1001.23
2023-03-22T10:14:08.413Z,1001.27
2023-03-22T10:15:08.466Z,1001.16
2023-03-22T10:16:08.480Z,1001.21
2023-03-22T10:17:08.542Z,1001.21
2023-03-22T10:18:08.415Z,1001.22
2023-03-22T10:19:08.380Z,1001.21
2023-03-22T10:20:08.353Z,1001.19
2023-03-22T10:21:08.386Z,1001.21
2023-03-22T10:22:08.337Z,1001.19
2023-03-22T10:23:08.357Z,1001.21
2023-03-22T10:24:08.310Z,1001.26
2023-03-22T10:25:08.296Z,1001.20
2023-03-22T10:26:08.290Z,1001.16
2023-03-22T10:27:08.272Z,1001.21
2023-03-22T10:28:08.257Z,1001.23
2023-03-22T10:29:09.958Z,1001.12
2023-03-22T10:30:08.235Z,1001.15
2023-03-22T10:31:08.245Z,1001.26
2023-03-22T10:32:08.243Z,1001.27
2023-03-22T10:33:08.195Z,1001.17
2023-03-22T10:34:08.328Z,1001.26
2023-03-22T10:35:08.194Z,1001.14
2023-03-22T10:36:08.182Z,1001.13
2023-03-22T10:37:08.165Z,1001.13
2023-03-22T10:38:08.162Z,1001.07
2023-03-22T10:39:08.229Z,1001.02
2023-03-22T10:40:08.162Z,1001.05
2023-03-22T10:41:08.115Z,1001.08
2023-03-22T10:42:08.144Z,1001.13
2023-03-22T10:43:08.101Z,1001.04
2023-03-22T10:44:08.105Z,1001.13
2023-03-22T10:45:08.082Z,1001.11
2023-03-22T10:46:08.080Z,1001.13
2023-03-22T10:47:08.411Z,1001.15
2023-03-22T10:48:08.103Z,1001.11
2023-03-22T10:49:08.023Z,1001.17
2023-03-22T10:50:08.031Z,1001.21
2023-03-22T10:51:08.017Z,1001.28
2023-03-22T10:52:08.000Z,1001.27
2023-03-22T10:53:08.098Z,1001.25
2023-03-22T10:54:07.988Z,1001.26
2023-03-22T10:55:07.968Z,1001.19
2023-03-22T10:56:07.976Z,1001.22
2023-03-22T10:57:07.953Z,1001.26
2023-03-22T10:58:08.977Z,1001.26
2023-03-22T10:59:07.958Z,1001.22
2023-03-22T11:00:07.994Z,1001.21
2023-03-22T11:01:08.087Z,1001.12
2023-03-22T11:02:07.996Z,1001.22
2023-03-22T11:03:08.110Z,1001.19
2023-03-22T11:04:07.910Z,1001.24
2023-03-22T11:05:07.934Z,1001.26
2023-03-22T11:06:07.871Z,1001.15
2023-03-22T11:07:07.846Z,1001.11
2023-03-22T11:08:07.847Z,1001.00
2023-03-22T11:09:07.860Z,1001.13
2023-03-22T11:10:07.817Z,1001.19
2023-03-22T11:11:07.825Z,1001.13
2023-03-22T11:12:08.471Z,1001.18
2023-03-22T11:13:07.793Z,1001.13
2023-03-22T11:14:07.776Z,1001.16
2023-03-22T11:15:07.890Z,1001.04
2023-03-22T11:16:07.808Z,1001.16
2023-03-22T11:17:07.770Z,1001.14
2023-03-22T11:18:07.797Z,1001.06
2023-03-22T11:19:07.711Z,1001.10
2023-03-22T11:20:08.018Z,1001.18
2023-03-22T11:21:07.696Z,1001.15
2023-03-22T11:22:07.676Z,1001.15
2023-03-22T11:23:07.693Z,1001.15
2023-03-22T11:24:07.727Z,1001.15
2023-03-22T11:25:07.667Z,1001.15
2023-03-22T11:26:07.667Z,1001.09
2023-03-22T11:27:07.625Z,1001.12
2023-03-22T11:28:07.628Z,1001.16
2023-03-22T11:29:07.598Z,1001.16
2023-03-22T11:30:07.601Z,1001.06
2023-03-22T11:31:07.585Z,1001.11
2023-03-22T11:32:07.677Z,1001.18
2023-03-22T11:33:07.664Z,1001.15
2023-03-22T11:34:07.595Z,1001.10
2023-03-22T11:35:07.537Z,1001.08
2023-03-22T11:36:07.573Z,1001.18
2023-03-22T11:37:07.577Z,1001.07
2023-03-22T11:38:07.526Z,1001.13
2023-03-22T11:39:07.506Z,1001.16
2023-03-22T11:40:07.490Z,1001.16
2023-03-22T11:41:07.468Z,1001.13
2023-03-22T11:42:07.585Z,1001.10
2023-03-22T11:43:07.475Z,1001.21
2023-03-22T11:44:07.477Z,1001.09
2023-03-22T11:45:07.442Z,1001.19
2023-03-22T11:46:07.506Z,1001.06
2023-03-22T11:47:07.400Z,1001.09
2023-03-22T11:48:07.696Z,1000.97
2023-03-22T11:49:07.497Z,1001.04
2023-03-22T11:50:09.441Z,1001.06
2023-03-22T11:51:07.367Z,1001.08
2023-03-22T11:52:07.409Z,1001.10
2023-03-22T11:53:07.749Z,1001.11
2023-03-22T11:54:07.345Z,1001.08
2023-03-22T11:55:07.334Z,1001.10
2023-03-22T11:56:07.319Z,1001.12
2023-03-22T11:57:07.304Z,1001.11
2023-03-22T11:58:07.338Z,1001.11
2023-03-22T11:59:07.279Z,1001.04
2023-03-22T12:00:07.276Z,1001.04
2023-03-22T12:01:07.258Z,1001.12
2023-03-22T12:02:07.289Z,1001.03
2023-03-22T12:03:07.313Z,1001.03
2023-03-22T12:04:07.274Z,1001.03
2023-03-22T12:05:07.274Z,1000.99